Time,TemperatureF,DewpointF,PressureIn,WindDirection,WindDirectionDegrees,WindSpeedMPH,WindSpeedGustMPH,Humidity,HourlyPrecipIn,Conditions,Clouds,dailyrainin,SoftwareType,DateUTC
2013-05-03 00:01:00,73.0,67.2,29.73,ENE,68,0.0,0.0,82,0.00,,---,0.20,VWS V13.01,2013-05-03 04:01:00,
2013-05-03 00:06:00,73.0,67.2,29.73,ENE,68,0.0,1.6,82,0.00,,---,0.20,VWS V13.01,2013-05-03 04:06:00,
2013-05-03 00:11:00,73.0,67.2,29.72,ESE,112,0.0,1.6,82,0.00,,---,0.20,VWS V13.01,2013-05-03 04:11:00,
2013-05-03 00:16:00,73.2,67.4,29.72,ENE,68,3.8,5.1,82,0.00,,---,0.20,VWS V13.01,2013-05-03 04:16:00,
2013-05-03 00:21:00,73.2,67.4,29.71,East,90,0.0,5.6,82,0.00,,---,0.20,VWS V13.01,2013-05-03 04:21:00,
2013-05-03 00:26:00,73.2,67.4,29.71,ENE,68,0.0,5.6,82,0.00,,---,0.20,VWS V13.01,2013-05-03 04:26:00,
2013-05-03 00:31:00,73.6,67.8,29.70,ESE,112,0.0,5.8,82,0.00,,---,0.20,VWS V13.01,2013-05-03 04:31:00,
2013-05-03 00:36:00,73.6,67.0,29.70,ESE,112,0.0,8.3,80,0.00,,---,0.20,VWS V13.01,2013-05-03 04:36:00,
2013-05-03 00:41:00,73.6,67.0,29.70,ESE,112,1.6,8.3,80,0.00,,---,0.20,VWS V13.01,2013-05-03 04:41:00,
2013-05-03 00:46:00,73.6,67.0,29.70,ESE,112,0.0,8.3,80,0.00,,---,0.20,VWS V13.01,2013-05-03 04:46:00,
2013-05-03 00:51:00,73.2,66.7,29.70,ESE,112,0.0,8.3,80,0.00,,---,0.20,VWS V13.01,2013-05-03 04:51:00,
2013-05-03 00:56:00,73.0,66.5,29.70,ESE,112,0.0,8.3,80,0.00,,---,0.20,VWS V13.01,2013-05-03 04:56:00,
2013-05-03 01:01:00,72.9,66.3,29.70,East,90,0.0,8.3,80,0.00,,---,0.20,VWS V13.01,2013-05-03 05:01:00,
2013-05-03 01:06:00,72.9,66.3,29.70,East,90,0.0,0.0,80,0.00,,---,0.20,VWS V13.01,2013-05-03 05:06:00,
2013-05-03 01:11:00,72.7,66.2,29.69,East,90,0.0,0.0,80,0.00,,---,0.20,VWS V13.01,2013-05-03 05:11:00,
2013-05-03 01:16:00,72.3,65.8,29.68,East,90,0.0,0.0,80,0.00,,---,0.20,VWS V13.01,2013-05-03 05:16:00,
2013-05-03 01:21:00,72.3,65.8,29.68,East,90,0.0,0.0,80,0.00,,---,0.20,VWS V13.01,2013-05-03 05:21:00,
2013-05-03 01:26:00,72.0,65.5,29.68,East,90,0.0,0.0,80,0.00,,---,0.20,VWS V13.01,2013-05-03 05:26:00,
2013-05-03 01:31:00,71.8,65.3,29.68,East,90,0.0,0.0,80,0.00,,---,0.20,VWS V13.01,2013-05-03 05:31:00,
2013-05-03 01:36:00,71.8,65.3,29.67,East,90,0.0,0.0,80,0.00,,---,0.20,VWS V13.01,2013-05-03 05:36:00,
2013-05-03 01:41:00,71.4,64.9,29.67,East,90,0.0,0.0,80,0.00,,---,0.20,VWS V13.01,2013-05-03 05:41:00,
2013-05-03 01:46:00,71.2,64.8,29.67,East,90,0.0,0.0,80,0.00,,---,0.20,VWS V13.01,2013-05-03 05:46:00,
2013-05-03 01:51:00,71.1,64.6,29.66,East,90,0.0,0.0,80,0.00,,---,0.20,VWS V13.01,2013-05-03 05:51:00,
2013-05-03 01:56:00,71.1,65.6,29.66,East,90,0.0,0.0,83,0.00,,---,0.20,VWS V13.01,2013-05-03 05:56:00,
2013-05-03 02:01:00,70.9,65.5,29.65,East,90,0.0,0.0,83,0.00,,---,0.20,VWS V13.01,2013-05-03 06:01:00,
2013-05-03 02:06:00,70.7,65.3,29.65,East,90,0.0,0.0,83,0.00,,---,0.20,VWS V13.01,2013-05-03 06:06:00,
2013-05-03 02:11:00,70.5,65.1,29.65,East,90,0.0,0.0,83,0.00,,---,0.20,VWS V13.01,2013-05-03 06:11:00,
2013-05-03 02:16:00,70.5,65.1,29.65,East,90,0.0,0.0,83,0.00,,---,0.20,VWS V13.01,2013-05-03 06:16:00,
2013-05-03 02:21:00,70.5,65.1,29.65,East,90,0.0,0.0,83,0.00,,---,0.20,VWS V13.01,2013-05-03 06:21:00,
2013-05-03 02:26:00,70.5,65.1,29.65,East,90,0.0,0.0,83,0.00,,---,0.20,VWS V13.01,2013-05-03 06:26:00,
2013-05-03 02:31:00,70.3,64.9,29.65,East,90,0.0,0.0,83,0.00,,---,0.20,VWS V13.01,2013-05-03 06:31:00,
2013-05-03 02:36:00,70.5,65.1,29.65,East,90,0.0,0.0,83,0.00,,---,0.20,VWS V13.01,2013-05-03 06:36:00,
2013-05-03 02:41:00,70.3,64.9,29.65,East,90,0.0,0.0,83,0.00,,---,0.20,VWS V13.01,2013-05-03 06:41:00,
2013-05-03 02:46:00,70.3,64.9,29.65,East,90,0.0,0.0,83,0.00,,---,0.20,VWS V13.01,2013-05-03 06:46:00,
2013-05-03 02:51:00,70.3,64.9,29.65,East,90,0.0,0.0,83,0.00,,---,0.20,VWS V13.01,2013-05-03 06:51:00,
2013-05-03 02:56:00,70.3,64.9,29.65,East,90,0.0,0.0,83,0.00,,---,0.20,VWS V13.01,2013-05-03 06:56:00,
2013-05-03 03:01:00,70.2,64.8,29.65,East,90,0.0,0.0,83,0.00,,---,0.20,VWS V13.01,2013-05-03 07:01:00,
2013-05-03 03:06:00,70.2,64.8,29.64,East,90,0.0,0.0,83,0.00,,---,0.20,VWS V13.01,2013-05-03 07:06:00,
2013-05-03 03:11:00,70.3,64.9,29.65,East,90,0.0,0.0,83,0.00,,---,0.20,VWS V13.01,2013-05-03 07:11:00,
2013-05-03 03:16:00,70.3,64.9,29.64,East,90,0.0,0.0,83,0.00,,---,0.20,VWS V13.01,2013-05-03 07:16:00,
2013-05-03 03:21:00,70.3,64.9,29.64,East,90,0.0,0.0,83,0.00,,---,0.20,VWS V13.01,2013-05-03 07:21:00,
2013-05-03 03:26:00,70.5,66.5,29.64,East,90,0.0,0.0,87,0.00,,---,0.20,VWS V13.01,2013-05-03 07:26:00,
2013-05-03 03:31:00,70.3,66.3,29.64,East,90,0.0,0.0,87,0.00,,---,0.20,VWS V13.01,2013-05-03 07:31:00,
2013-05-03 03:36:00,70.3,66.3,29.65,East,90,0.0,0.0,87,0.00,,---,0.20,VWS V13.01,2013-05-03 07:36:00,
2013-05-03 03:41:00,70.2,66.1,29.64,East,90,0.0,0.0,87,0.00,,---,0.20,VWS V13.01,2013-05-03 07:41:00,
2013-05-03 03:46:00,70.3,66.3,29.65,East,90,0.0,0.0,87,0.00,,---,0.20,VWS V13.01,2013-05-03 07:46:00,
2013-05-03 03:51:00,70.2,66.1,29.65,East,90,0.0,0.0,87,0.00,,---,0.20,VWS V13.01,2013-05-03 07:51:00,
2013-05-03 03:56:00,70.2,66.1,29.66,SW,225,0.0,0.0,87,0.00,,---,0.20,VWS V13.01,2013-05-03 07:56:00,
2013-05-03 04:01:00,70.2,66.1,29.66,SW,225,0.0,0.0,87,0.00,,---,0.20,VWS V13.01,2013-05-03 08:01:00,
2013-05-03 04:06:00,70.3,66.3,29.66,SW,225,0.0,0.0,87,0.00,,---,0.20,VWS V13.01,2013-05-03 08:06:00,
2013-05-03 04:11:00,70.2,66.1,29.66,SW,225,0.0,2.5,87,0.00,,---,0.20,VWS V13.01,2013-05-03 08:11:00,
2013-05-03 04:16:00,70.2,66.1,29.66,SW,225,0.0,2.5,87,0.00,,---,0.20,VWS V13.01,2013-05-03 08:16:00,
2013-05-03 04:21:00,70.2,66.1,29.66,WSW,248,0.0,2.5,87,0.00,,---,0.20,VWS V13.01,2013-05-03 08:21:00,
2013-05-03 04:26:00,70.2,66.1,29.66,SW,225,1.1,2.5,87,0.00,,---,0.20,VWS V13.01,2013-05-03 08:26:00,
2013-05-03 04:31:00,70.2,66.1,29.66,SW,225,0.0,2.5,87,0.00,,---,0.20,VWS V13.01,2013-05-03 08:31:00,
2013-05-03 04:36:00,70.2,66.1,29.66,SW,225,1.8,2.5,87,0.00,,---,0.20,VWS V13.01,2013-05-03 08:36:00,
2013-05-03 04:40:00,70.0,65.9,29.67,WSW,248,0.0,4.5,87,0.00,,---,0.20,VWS V13.01,2013-05-03 08:40:00,
2013-05-03 04:45:00,70.0,66.3,29.67,WNW,292,0.0,4.5,88,0.00,,---,0.20,VWS V13.01,2013-05-03 08:45:00,
2013-05-03 04:50:00,70.0,66.3,29.67,WSW,248,2.5,4.5,88,0.00,,---,0.20,VWS V13.01,2013-05-03 08:50:00,
2013-05-03 04:55:00,70.0,66.3,29.67,WSW,248,0.0,4.5,88,0.00,,---,0.20,VWS V13.01,2013-05-03 08:55:00,
2013-05-03 05:00:00,69.8,66.1,29.67,SW,225,0.0,0.0,88,0.00,,---,0.20,VWS V13.01,2013-05-03 09:00:00,
2013-05-03 05:05:00,69.8,66.1,29.66,West,270,0.0,0.0,88,0.00,,---,0.20,VWS V13.01,2013-05-03 09:05:00,
2013-05-03 05:10:00,69.6,65.9,29.66,West,270,0.0,0.0,88,0.00,,---,0.20,VWS V13.01,2013-05-03 09:10:00,
2013-05-03 05:15:00,69.4,65.7,29.66,West,270,0.0,3.6,88,0.00,,---,0.20,VWS V13.01,2013-05-03 09:15:00,
2013-05-03 05:20:00,69.3,65.9,29.66,West,270,0.0,3.6,89,0.00,,---,0.20,VWS V13.01,2013-05-03 09:20:00,
2013-05-03 05:25:00,69.4,66.1,29.66,West,270,0.0,3.6,89,0.00,,---,0.20,VWS V13.01,2013-05-03 09:25:00,
2013-05-03 05:30:00,69.3,65.9,29.67,WSW,248,0.0,3.6,89,0.00,,---,0.20,VWS V13.01,2013-05-03 09:30:00,
2013-05-03 05:35:00,69.4,66.1,29.67,WSW,248,3.8,3.8,89,0.00,,---,0.20,VWS V13.01,2013-05-03 09:35:00,
2013-05-03 05:40:00,69.3,65.9,29.67,WSW,248,0.0,3.8,89,0.00,,---,0.20,VWS V13.01,2013-05-03 09:40:00,
2013-05-03 05:45:00,69.4,66.1,29.67,SW,225,0.0,3.8,89,0.00,,---,0.20,VWS V13.01,2013-05-03 09:45:00,
2013-05-03 05:50:00,69.4,66.1,29.67,WSW,248,0.0,3.8,89,0.00,,---,0.20,VWS V13.01,2013-05-03 09:50:00,
2013-05-03 05:55:00,69.4,66.1,29.67,SW,225,1.1,3.8,89,0.00,,---,0.20,VWS V13.01,2013-05-03 09:55:00,
2013-05-03 06:00:00,69.4,66.1,29.68,SW,225,0.0,0.0,89,0.00,,---,0.20,VWS V13.01,2013-05-03 10:00:00,
2013-05-03 06:05:00,69.3,65.9,29.68,SW,225,3.4,3.8,89,0.00,,---,0.20,VWS V13.01,2013-05-03 10:05:00,
2013-05-03 06:10:00,69.3,65.9,29.68,SW,225,0.0,5.8,89,0.00,,---,0.20,VWS V13.01,2013-05-03 10:10:00,
2013-05-03 06:15:00,69.3,65.9,29.68,WSW,248,0.0,5.8,89,0.00,,---,0.20,VWS V13.01,2013-05-03 10:15:00,
2013-05-03 06:20:00,69.3,65.9,29.68,WSW,248,0.0,5.8,89,0.00,,---,0.20,VWS V13.01,2013-05-03 10:20:00,
2013-05-03 06:25:00,69.3,65.9,29.68,SSW,202,0.0,5.8,89,0.00,,---,0.20,VWS V13.01,2013-05-03 10:25:00,
2013-05-03 06:30:00,69.3,65.9,29.68,WSW,248,0.2,5.8,89,0.00,,---,0.20,VWS V13.01,2013-05-03 10:30:00,
2013-05-03 06:35:00,69.3,65.9,29.68,SW,225,0.0,5.8,89,0.00,,---,0.20,VWS V13.01,2013-05-03 10:35:00,
2013-05-03 06:40:00,69.3,65.9,29.68,SW,225,0.0,5.8,89,0.00,,---,0.20,VWS V13.01,2013-05-03 10:40:00,
2013-05-03 06:45:00,69.3,65.9,29.68,SW,225,0.2,5.8,89,0.00,,---,0.20,VWS V13.01,2013-05-03 10:45:00,
2013-05-03 06:50:00,69.1,65.7,29.68,SW,225,0.0,5.8,89,0.00,,---,0.20,VWS V13.01,2013-05-03 10:50:00,
2013-05-03 06:55:00,69.1,65.7,29.68,SW,225,0.0,5.8,89,0.00,,---,0.20,VWS V13.01,2013-05-03 10:55:00,
2013-05-03 07:00:00,69.1,65.7,29.68,SW,225,0.0,0.0,89,0.00,,---,0.20,VWS V13.01,2013-05-03 11:00:00,
2013-05-03 07:05:00,69.1,65.7,29.68,SW,225,1.1,1.1,89,0.00,,---,0.20,VWS V13.01,2013-05-03 11:05:00,
2013-05-03 07:10:00,69.3,65.9,29.68,SW,225,0.0,3.6,89,0.00,,---,0.20,VWS V13.01,2013-05-03 11:10:00,
2013-05-03 07:15:00,69.1,65.7,29.68,SW,225,0.0,3.6,89,0.00,,---,0.20,VWS V13.01,2013-05-03 11:15:00,
2013-05-03 07:20:00,69.3,65.9,29.68,SW,225,0.0,3.6,89,0.00,,---,0.20,VWS V13.01,2013-05-03 11:20:00,
2013-05-03 07:25:00,69.8,66.4,29.68,SW,225,0.0,3.6,89,0.00,,---,0.20,VWS V13.01,2013-05-03 11:25:00,
2013-05-03 07:30:00,70.7,67.3,29.68,SW,225,0.0,3.6,89,0.00,,---,0.20,VWS V13.01,2013-05-03 11:30:00,
2013-05-03 07:35:00,72.3,68.9,29.68,SW,225,0.0,3.6,89,0.00,,---,0.20,VWS V13.01,2013-05-03 11:35:00,
2013-05-03 07:40:00,73.9,70.5,29.68,WSW,248,0.0,3.6,89,0.00,,---,0.20,VWS V13.01,2013-05-03 11:40:00,
2013-05-03 07:45:00,75.9,72.4,29.68,SW,225,0.0,3.6,89,0.00,,---,0.20,VWS V13.01,2013-05-03 11:45:00,
2013-05-03 07:50:00,78.1,74.6,29.68,SW,225,0.0,3.6,89,0.00,,---,0.20,VWS V13.01,2013-05-03 11:50:00,
2013-05-03 07:55:00,80.1,76.5,29.68,SW,225,0.0,3.6,89,0.00,,---,0.20,VWS V13.01,2013-05-03 11:55:00,
2013-05-03 08:00:00,81.5,77.9,29.68,WSW,248,2.9,2.9,89,0.00,,---,0.20,VWS V13.01,2013-05-03 12:00:00,
2013-05-03 08:05:00,82.2,71.9,29.68,WSW,248,1.3,2.9,71,0.00,,---,0.20,VWS V13.01,2013-05-03 12:05:00,
2013-05-03 08:10:00,82.2,69.3,29.68,SW,225,0.0,2.9,65,0.00,,---,0.20,VWS V13.01,2013-05-03 12:10:00,
2013-05-03 08:15:00,82.4,69.5,29.68,WSW,248,0.9,2.9,65,0.00,,---,0.20,VWS V13.01,2013-05-03 12:15:00,
2013-05-03 08:20:00,82.2,67.4,29.68,SSE,158,0.0,2.9,61,0.00,,---,0.20,VWS V13.01,2013-05-03 12:20:00,
2013-05-03 08:25:00,81.3,66.1,29.68,NNW,338,0.0,2.9,60,0.00,,---,0.20,VWS V13.01,2013-05-03 12:25:00,
2013-05-03 08:31:00,80.6,65.4,29.68,NNW,338,0.0,2.9,60,0.00,,---,0.20,VWS V13.01,2013-05-03 12:31:00,
2013-05-03 08:36:00,79.5,64.4,29.69,WSW,248,0.0,2.9,60,0.00,,---,0.20,VWS V13.01,2013-05-03 12:36:00,
2013-05-03 08:41:00,79.0,63.9,29.68,WSW,248,0.0,2.9,60,0.00,,---,0.20,VWS V13.01,2013-05-03 12:41:00,
2013-05-03 08:46:00,78.6,63.6,29.68,WSW,248,4.5,4.5,60,0.00,,---,0.20,VWS V13.01,2013-05-03 12:46:00,
2013-05-03 08:51:00,78.3,65.1,29.69,WSW,248,0.0,5.8,64,0.00,,---,0.20,VWS V13.01,2013-05-03 12:51:00,
2013-05-03 08:56:00,77.9,64.8,29.69,WSW,248,0.0,5.8,64,0.00,,---,0.20,VWS V13.01,2013-05-03 12:56:00,
2013-05-03 09:01:00,77.9,64.8,29.69,SSW,202,0.0,0.0,64,0.00,,---,0.20,VWS V13.01,2013-05-03 13:01:00,
2013-05-03 09:06:00,77.9,64.8,29.69,West,270,4.0,6.7,64,0.00,,---,0.20,VWS V13.01,2013-05-03 13:06:00,
2013-05-03 09:11:00,77.9,64.8,29.69,WSW,248,0.0,6.7,64,0.00,,---,0.20,VWS V13.01,2013-05-03 13:11:00,
2013-05-03 09:16:00,78.3,66.0,29.69,WSW,248,1.8,6.7,66,0.00,,---,0.20,VWS V13.01,2013-05-03 13:16:00,
2013-05-03 09:21:00,78.4,66.2,29.69,WSW,248,0.0,7.6,66,0.00,,---,0.20,VWS V13.01,2013-05-03 13:21:00,
2013-05-03 09:26:00,78.4,66.2,29.69,SW,225,0.0,7.6,66,0.00,,---,0.20,VWS V13.01,2013-05-03 13:26:00,
2013-05-03 09:31:00,79.0,66.7,29.69,SW,225,3.6,7.6,66,0.00,,---,0.20,VWS V13.01,2013-05-03 13:31:00,
2013-05-03 09:36:00,79.2,66.8,29.69,West,270,0.0,7.6,66,0.00,,---,0.20,VWS V13.01,2013-05-03 13:36:00,
2013-05-03 09:41:00,79.0,65.8,29.69,SSW,202,0.0,7.6,64,0.00,,---,0.20,VWS V13.01,2013-05-03 13:41:00,
2013-05-03 09:46:00,79.3,66.1,29.69,SW,225,0.0,8.5,64,0.00,,---,0.20,VWS V13.01,2013-05-03 13:46:00,
2013-05-03 09:51:00,79.7,66.5,29.69,WSW,248,0.0,8.5,64,0.00,,---,0.20,VWS V13.01,2013-05-03 13:51:00,
2013-05-03 09:56:00,79.7,66.5,29.69,West,270,5.6,8.5,64,0.00,,---,0.20,VWS V13.01,2013-05-03 13:56:00,
2013-05-03 10:01:00,79.5,64.9,29.70,SSW,202,0.0,7.4,61,0.00,,---,0.20,VWS V13.01,2013-05-03 14:01:00,
2013-05-03 10:06:00,79.9,65.2,29.70,West,270,0.0,7.4,61,0.00,,---,0.20,VWS V13.01,2013-05-03 14:06:00,
2013-05-03 10:11:00,79.7,65.1,29.70,WNW,292,0.0,7.4,61,0.00,,---,0.20,VWS V13.01,2013-05-03 14:11:00,
2013-05-03 10:16:00,80.4,65.8,29.69,SW,225,0.0,7.4,61,0.00,,---,0.20,VWS V13.01,2013-05-03 14:16:00,
2013-05-03 10:21:00,81.3,66.6,29.69,SW,225,0.0,7.4,61,0.00,,---,0.20,VWS V13.01,2013-05-03 14:21:00,
2013-05-03 10:26:00,81.9,66.6,29.69,SW,225,7.2,7.4,60,0.00,,---,0.20,VWS V13.01,2013-05-03 14:26:00,
2013-05-03 10:31:00,82.0,66.8,29.69,SSE,158,0.0,7.4,60,0.00,,---,0.20,VWS V13.01,2013-05-03 14:31:00,
2013-05-03 10:36:00,81.3,65.1,29.70,SW,225,2.5,7.4,58,0.00,,---,0.20,VWS V13.01,2013-05-03 14:36:00,
2013-05-03 10:41:00,81.3,65.1,29.69,WSW,248,0.0,7.4,58,0.00,,---,0.20,VWS V13.01,2013-05-03 14:41:00,
2013-05-03 10:46:00,81.7,65.5,29.70,West,270,0.0,7.4,58,0.00,,---,0.20,VWS V13.01,2013-05-03 14:46:00,
2013-05-03 10:51:00,81.7,65.5,29.69,West,270,0.0,7.4,58,0.00,,---,0.20,VWS V13.01,2013-05-03 14:51:00,
2013-05-03 10:56:00,82.0,65.3,29.69,West,270,0.0,7.4,57,0.00,,---,0.20,VWS V13.01,2013-05-03 14:56:00,
2013-05-03 11:01:00,82.2,65.5,29.69,SSW,202,0.0,5.4,57,0.00,,---,0.20,VWS V13.01,2013-05-03 15:01:00,
2013-05-03 11:06:00,82.6,65.8,29.69,SW,225,0.4,9.2,57,0.00,,---,0.20,VWS V13.01,2013-05-03 15:06:00,
2013-05-03 11:11:00,82.9,66.2,29.69,WNW,292,1.1,9.2,57,0.00,,---,0.20,VWS V13.01,2013-05-03 15:11:00,
2013-05-03 11:16:00,83.3,66.5,29.69,SW,225,2.2,9.2,57,0.00,,---,0.20,VWS V13.01,2013-05-03 15:16:00,
2013-05-03 11:21:00,83.5,66.7,29.69,West,270,0.0,9.2,57,0.00,,---,0.20,VWS V13.01,2013-05-03 15:21:00,
2013-05-03 11:26:00,83.8,64.9,29.69,SSW,202,2.0,9.2,53,0.00,,---,0.20,VWS V13.01,2013-05-03 15:26:00,
2013-05-03 11:31:00,84.6,65.6,29.69,WSW,248,0.0,9.2,53,0.00,,---,0.20,VWS V13.01,2013-05-03 15:31:00,
2013-05-03 11:36:00,84.7,65.7,29.69,West,270,4.7,9.2,53,0.00,,---,0.20,VWS V13.01,2013-05-03 15:36:00,
2013-05-03 11:41:00,85.1,66.1,29.70,West,270,0.0,9.2,53,0.00,,---,0.20,VWS V13.01,2013-05-03 15:41:00,
2013-05-03 11:46:00,85.6,66.6,29.69,West,270,0.0,9.2,53,0.00,,---,0.20,VWS V13.01,2013-05-03 15:46:00,
2013-05-03 11:51:00,85.6,66.6,29.69,WNW,292,0.0,9.2,53,0.00,,---,0.20,VWS V13.01,2013-05-03 15:51:00,
2013-05-03 11:56:00,85.8,66.7,29.69,West,270,0.0,9.2,53,0.00,,---,0.20,VWS V13.01,2013-05-03 15:56:00,
2013-05-03 12:01:00,86.4,67.2,29.69,WSW,248,0.0,2.5,53,0.00,,---,0.14,VWS V13.01,2013-05-03 16:01:00,
2013-05-03 12:06:00,86.7,65.9,29.69,West,270,0.0,3.1,50,0.00,,---,0.14,VWS V13.01,2013-05-03 16:06:00,
2013-05-03 12:11:00,86.9,66.0,29.69,WNW,292,0.0,3.1,50,0.00,,---,0.14,VWS V13.01,2013-05-03 16:11:00,
2013-05-03 12:16:00,86.9,66.0,29.68,SE,135,0.0,6.3,50,0.00,,---,0.14,VWS V13.01,2013-05-03 16:16:00,
2013-05-03 12:21:00,86.9,66.0,29.69,WNW,292,1.3,6.3,50,0.00,,---,0.14,VWS V13.01,2013-05-03 16:21:00,
2013-05-03 12:26:00,86.5,65.7,29.68,WNW,292,0.0,6.5,50,0.00,,---,0.14,VWS V13.01,2013-05-03 16:26:00,
2013-05-03 12:31:00,86.4,65.5,29.68,West,270,1.3,6.5,50,0.00,,---,0.14,VWS V13.01,2013-05-03 16:31:00,
2013-05-03 12:36:00,86.9,63.7,29.68,West,270,1.8,6.5,46,0.00,,---,0.14,VWS V13.01,2013-05-03 16:36:00,
2013-05-03 12:41:00,86.4,63.2,29.68,SSW,202,0.0,6.5,46,0.00,,---,0.14,VWS V13.01,2013-05-03 16:41:00,
2013-05-03 12:46:00,86.9,63.7,29.68,South,180,0.0,6.5,46,0.00,,---,0.14,VWS V13.01,2013-05-03 16:46:00,
2013-05-03 12:51:00,87.4,64.1,29.68,SSW,202,0.0,6.5,46,0.00,,---,0.14,VWS V13.01,2013-05-03 16:51:00,
2013-05-03 12:56:00,88.2,64.8,29.68,SW,225,0.0,6.5,46,0.00,,---,0.14,VWS V13.01,2013-05-03 16:56:00,
2013-05-03 13:01:00,88.3,64.9,29.68,SW,225,0.0,4.3,46,0.00,,---,0.14,VWS V13.01,2013-05-03 17:01:00,
2013-05-03 13:06:00,88.2,64.8,29.68,SW,225,0.0,4.3,46,0.00,,---,0.14,VWS V13.01,2013-05-03 17:06:00,
2013-05-03 13:11:00,88.5,65.1,29.67,SW,225,0.0,4.3,46,0.00,,---,0.14,VWS V13.01,2013-05-03 17:11:00,
2013-05-03 13:16:00,88.7,65.3,29.67,West,270,0.0,4.5,46,0.00,,---,0.14,VWS V13.01,2013-05-03 17:16:00,
2013-05-03 13:21:00,88.7,65.3,29.67,West,270,2.9,6.5,46,0.00,,---,0.14,VWS V13.01,2013-05-03 17:21:00,
2013-05-03 13:26:00,88.5,65.1,29.67,WNW,292,2.5,6.5,46,0.00,,---,0.14,VWS V13.01,2013-05-03 17:26:00,
2013-05-03 13:31:00,88.7,65.3,29.67,WNW,292,0.0,6.5,46,0.00,,---,0.14,VWS V13.01,2013-05-03 17:31:00,
2013-05-03 13:36:00,89.1,65.6,29.67,SW,225,9.6,9.6,46,0.00,,---,0.14,VWS V13.01,2013-05-03 17:36:00,
2013-05-03 13:41:00,89.4,65.9,29.66,SSW,202,2.2,9.6,46,0.00,,---,0.14,VWS V13.01,2013-05-03 17:41:00,
2013-05-03 13:46:00,90.0,66.4,29.66,NW,315,2.5,9.6,46,0.00,,---,0.14,VWS V13.01,2013-05-03 17:46:00,
2013-05-03 13:51:00,89.6,66.1,29.66,SW,225,0.0,9.6,46,0.00,,---,0.14,VWS V13.01,2013-05-03 17:51:00,
2013-05-03 13:56:00,90.0,66.4,29.66,WNW,292,0.0,9.6,46,0.00,,---,0.14,VWS V13.01,2013-05-03 17:56:00,
2013-05-03 14:01:00,90.1,66.6,29.66,SSW,202,3.4,4.9,46,0.00,,---,0.12,VWS V13.01,2013-05-03 18:01:00,
2013-05-03 14:06:00,90.9,63.2,29.65,West,270,1.1,7.2,40,0.00,,---,0.12,VWS V13.01,2013-05-03 18:06:00,
2013-05-03 14:11:00,91.0,63.4,29.65,West,270,3.1,7.2,40,0.00,,---,0.12,VWS V13.01,2013-05-03 18:11:00,
2013-05-03 14:16:00,91.6,63.9,29.65,SW,225,0.0,7.2,40,0.00,,---,0.12,VWS V13.01,2013-05-03 18:16:00,
2013-05-03 14:21:00,91.6,63.9,29.65,West,270,1.1,7.2,40,0.00,,---,0.12,VWS V13.01,2013-05-03 18:21:00,
2013-05-03 14:26:00,91.4,61.5,29.64,WSW,248,6.7,7.2,37,0.00,,---,0.12,VWS V13.01,2013-05-03 18:26:00,
2013-05-03 14:31:00,90.9,61.0,29.64,NW,315,0.0,7.2,37,0.00,,---,0.12,VWS V13.01,2013-05-03 18:31:00,
2013-05-03 14:36:00,91.0,61.9,29.64,NW,315,5.4,7.2,38,0.00,,---,0.12,VWS V13.01,2013-05-03 18:36:00,
2013-05-03 14:41:00,90.9,61.8,29.64,WSW,248,0.0,7.2,38,0.00,,---,0.12,VWS V13.01,2013-05-03 18:41:00,
2013-05-03 14:46:00,91.4,62.2,29.64,SW,225,0.9,7.2,38,0.00,,---,0.12,VWS V13.01,2013-05-03 18:46:00,
2013-05-03 14:51:00,91.8,62.6,29.63,West,270,0.0,7.8,38,0.00,,---,0.12,VWS V13.01,2013-05-03 18:51:00,
2013-05-03 14:56:00,92.1,62.9,29.63,WSW,248,0.0,7.8,38,0.00,,---,0.12,VWS V13.01,2013-05-03 18:56:00,
2013-05-03 15:01:00,91.9,60.4,29.63,SSW,202,0.0,0.9,35,0.00,,---,0.00,VWS V13.01,2013-05-03 19:01:00,
2013-05-03 15:06:00,91.8,60.2,29.63,SSW,202,0.0,0.9,35,0.00,,---,0.00,VWS V13.01,2013-05-03 19:06:00,
2013-05-03 15:11:00,92.3,62.3,29.63,WSW,248,1.6,2.7,37,0.00,,---,0.00,VWS V13.01,2013-05-03 19:11:00,
2013-05-03 15:16:00,92.8,61.2,29.63,West,270,0.0,2.9,35,0.00,,---,0.00,VWS V13.01,2013-05-03 19:16:00,
2013-05-03 15:21:00,93.0,62.1,29.62,West,270,0.0,2.9,36,0.00,,---,0.00,VWS V13.01,2013-05-03 19:21:00,
2013-05-03 15:26:00,92.8,61.2,29.62,WSW,248,0.0,8.1,35,0.00,,---,0.00,VWS V13.01,2013-05-03 19:26:00,
2013-05-03 15:31:00,93.4,61.7,29.62,WSW,248,2.0,8.1,35,0.00,,---,0.00,VWS V13.01,2013-05-03 19:31:00,
2013-05-03 15:36:00,92.7,60.2,29.62,South,180,0.0,8.1,34,0.00,,---,0.00,VWS V13.01,2013-05-03 19:36:00,
2013-05-03 15:41:00,91.4,59.1,29.61,West,270,0.0,8.1,34,0.00,,---,0.00,VWS V13.01,2013-05-03 19:41:00,
2013-05-03 15:46:00,90.5,58.3,29.61,West,270,0.0,8.1,34,0.00,,---,0.00,VWS V13.01,2013-05-03 19:46:00,
2013-05-03 15:51:00,90.0,59.5,29.61,WSW,248,2.0,8.1,36,0.00,,---,0.00,VWS V13.01,2013-05-03 19:51:00,
2013-05-03 15:56:00,89.8,60.1,29.61,WSW,248,0.0,8.1,37,0.00,,---,0.00,VWS V13.01,2013-05-03 19:56:00,
2013-05-03 16:01:00,90.0,61.0,29.61,WSW,248,0.0,0.0,38,0.00,,---,0.00,VWS V13.01,2013-05-03 20:01:00,
2013-05-03 16:06:00,90.0,59.5,29.61,SW,225,0.0,1.1,36,0.00,,---,0.00,VWS V13.01,2013-05-03 20:06:00,
2013-05-03 16:11:00,90.3,60.5,29.61,SSE,158,2.9,6.0,37,0.00,,---,0.00,VWS V13.01,2013-05-03 20:11:00,
2013-05-03 16:16:00,89.4,61.2,29.61,ESE,112,4.0,6.0,39,0.00,,---,0.00,VWS V13.01,2013-05-03 20:16:00,
2013-05-03 16:21:00,88.3,61.7,29.61,ESE,112,5.1,7.2,41,0.00,,---,0.00,VWS V13.01,2013-05-03 20:21:00,
2013-05-03 16:26:00,87.4,61.5,29.60,ESE,112,0.0,7.2,42,0.00,,---,0.00,VWS V13.01,2013-05-03 20:26:00,
2013-05-03 16:31:00,86.9,62.4,29.60,SSE,158,4.3,7.2,44,0.00,,---,0.00,VWS V13.01,2013-05-03 20:31:00,
2013-05-03 16:36:00,86.4,61.9,29.61,SE,135,2.9,10.1,44,0.00,,---,0.00,VWS V13.01,2013-05-03 20:36:00,
2013-05-03 16:41:00,85.8,61.4,29.61,ESE,112,3.1,10.1,44,0.00,,---,0.00,VWS V13.01,2013-05-03 20:41:00,
2013-05-03 16:46:00,84.9,60.6,29.60,ESE,112,2.5,12.1,44,0.00,,---,0.00,VWS V13.01,2013-05-03 20:46:00,
2013-05-03 16:51:00,84.6,60.3,29.60,ESE,112,3.8,12.1,44,0.00,,---,0.00,VWS V13.01,2013-05-03 20:51:00,
2013-05-03 16:56:00,84.4,60.1,29.60,ENE,68,4.3,12.1,44,0.00,,---,0.00,VWS V13.01,2013-05-03 20:56:00,
2013-05-03 17:01:00,83.8,59.6,29.60,East,90,2.0,2.0,44,0.00,,---,0.00,VWS V13.01,2013-05-03 21:01:00,
2013-05-03 17:06:00,82.8,63.9,29.60,East,90,0.0,6.0,53,0.00,,---,0.00,VWS V13.01,2013-05-03 21:06:00,
2013-05-03 17:11:00,81.9,63.6,29.60,East,90,0.0,9.4,54,0.00,,---,0.00,VWS V13.01,2013-05-03 21:11:00,
2013-05-03 17:16:00,81.0,62.8,29.60,East,90,0.0,9.4,54,0.00,,---,0.00,VWS V13.01,2013-05-03 21:16:00,
2013-05-03 17:21:00,80.4,62.8,29.60,SE,135,8.5,9.4,55,0.00,,---,0.00,VWS V13.01,2013-05-03 21:21:00,
2013-05-03 17:26:00,79.5,63.5,29.61,ENE,68,2.0,11.0,58,0.00,,---,0.00,VWS V13.01,2013-05-03 21:26:00,
2013-05-03 17:31:00,79.0,63.4,29.61,South,180,1.3,11.0,59,0.00,,---,0.00,VWS V13.01,2013-05-03 21:31:00,
2013-05-03 17:36:00,78.4,63.4,29.61,South,180,3.6,11.0,60,0.06,,---,0.06,VWS V13.01,2013-05-03 21:36:00,
2013-05-03 17:41:00,77.4,62.9,29.62,SSW,202,0.0,11.0,61,0.06,,---,0.06,VWS V13.01,2013-05-03 21:41:00,
2013-05-03 17:46:00,76.5,62.0,29.62,South,180,2.0,11.0,61,0.06,,---,0.06,VWS V13.01,2013-05-03 21:46:00,
2013-05-03 17:51:00,76.1,62.2,29.62,South,180,2.5,11.0,62,0.06,,---,0.06,VWS V13.01,2013-05-03 21:51:00,
2013-05-03 17:56:00,75.9,62.4,29.63,SE,135,0.0,12.5,63,0.06,,---,0.06,VWS V13.01,2013-05-03 21:56:00,
2013-05-03 18:01:00,75.6,62.1,29.62,SE,135,3.8,3.8,63,0.06,,---,0.06,VWS V13.01,2013-05-03 22:01:00,
2013-05-03 18:06:00,75.6,62.1,29.63,ESE,112,0.0,3.8,63,0.06,,---,0.06,VWS V13.01,2013-05-03 22:06:00,
2013-05-03 18:11:00,75.9,62.9,29.63,South,180,0.0,3.8,64,0.06,,---,0.06,VWS V13.01,2013-05-03 22:11:00,
2013-05-03 18:16:00,76.1,62.6,29.62,SSE,158,0.0,3.8,63,0.06,,---,0.06,VWS V13.01,2013-05-03 22:16:00,
2013-05-03 18:21:00,76.1,62.6,29.61,SSE,158,0.0,3.8,63,0.06,,---,0.06,VWS V13.01,2013-05-03 22:21:00,
2013-05-03 18:26:00,76.6,63.1,29.61,SE,135,3.1,6.9,63,0.06,,---,0.06,VWS V13.01,2013-05-03 22:26:00,
2013-05-03 18:31:00,76.6,63.1,29.61,SSE,158,0.0,6.9,63,0.06,,---,0.06,VWS V13.01,2013-05-03 22:31:00,
2013-05-03 18:36:00,76.6,63.1,29.61,SSE,158,0.9,6.9,63,0.00,,---,0.06,VWS V13.01,2013-05-03 22:36:00,
2013-05-03 18:41:00,77.4,63.8,29.61,SSE,158,0.0,6.9,63,0.00,,---,0.06,VWS V13.01,2013-05-03 22:41:00,
2013-05-03 18:46:00,77.7,64.6,29.61,SSE,158,0.0,6.9,64,0.00,,---,0.06,VWS V13.01,2013-05-03 22:46:00,
2013-05-03 18:51:00,78.1,64.5,29.60,East,90,0.0,6.9,63,0.00,,---,0.06,VWS V13.01,2013-05-03 22:51:00,
2013-05-03 18:56:00,78.1,64.0,29.60,East,90,0.0,6.9,62,0.00,,---,0.06,VWS V13.01,2013-05-03 22:56:00,
2013-05-03 19:01:00,77.9,63.8,29.60,East,90,0.0,0.0,62,0.00,,---,0.08,VWS V13.01,2013-05-03 23:01:00,
2013-05-03 19:06:00,77.7,64.1,29.60,East,90,0.0,0.0,63,0.02,,---,0.08,VWS V13.01,2013-05-03 23:06:00,
2013-05-03 19:11:00,77.5,64.4,29.60,East,90,0.0,0.0,64,0.02,,---,0.08,VWS V13.01,2013-05-03 23:11:00,
2013-05-03 19:16:00,77.4,64.2,29.60,East,90,0.0,0.0,64,0.02,,---,0.08,VWS V13.01,2013-05-03 23:16:00,
2013-05-03 19:21:00,77.4,64.7,29.60,East,90,0.0,0.0,65,0.02,,---,0.08,VWS V13.01,2013-05-03 23:21:00,
2013-05-03 19:26:00,77.2,64.9,29.61,East,90,0.0,0.0,66,0.02,,---,0.08,VWS V13.01,2013-05-03 23:26:00,
2013-05-03 19:31:00,77.0,64.8,29.61,East,90,0.0,0.0,66,0.02,,---,0.08,VWS V13.01,2013-05-03 23:31:00,
2013-05-03 19:36:00,77.2,65.4,29.60,East,90,0.0,0.0,67,0.02,,---,0.08,VWS V13.01,2013-05-03 23:36:00,
2013-05-03 19:41:00,76.8,65.0,29.62,East,90,0.0,0.0,67,0.02,,---,0.08,VWS V13.01,2013-05-03 23:41:00,
2013-05-03 19:46:00,76.6,64.9,29.62,East,90,0.0,0.0,67,0.02,,---,0.08,VWS V13.01,2013-05-03 23:46:00,
2013-05-03 19:51:00,76.6,64.9,29.62,East,90,0.0,0.0,67,0.02,,---,0.08,VWS V13.01,2013-05-03 23:51:00,
2013-05-03 19:56:00,76.5,65.1,29.62,East,90,0.0,0.0,68,0.02,,---,0.08,VWS V13.01,2013-05-03 23:56:00,
2013-05-03 20:01:00,76.5,65.1,29.62,East,90,0.0,0.0,68,0.00,,---,0.08,VWS V13.01,2013-05-04 00:01:00,
2013-05-03 20:06:00,76.5,65.5,29.63,East,90,0.0,0.0,69,0.00,,---,0.08,VWS V13.01,2013-05-04 00:06:00,
2013-05-03 20:11:00,76.5,65.5,29.63,East,90,0.0,0.0,69,0.00,,---,0.08,VWS V13.01,2013-05-04 00:11:00,
2013-05-03 20:16:00,76.5,65.5,29.63,East,90,0.0,0.0,69,0.00,,---,0.08,VWS V13.01,2013-05-04 00:16:00,
2013-05-03 20:21:00,76.3,65.4,29.64,East,90,0.0,0.0,69,0.00,,---,0.08,VWS V13.01,2013-05-04 00:21:00,
2013-05-03 20:26:00,76.5,66.0,29.65,East,90,0.0,0.0,70,0.00,,---,0.08,VWS V13.01,2013-05-04 00:26:00,
2013-05-03 20:31:00,76.1,65.6,29.65,North,0,3.8,7.2,70,0.04,,---,0.12,VWS V13.01,2013-05-04 00:31:00,
2013-05-03 20:36:00,75.6,65.5,29.65,NNW,338,6.0,9.0,71,0.04,,---,0.12,VWS V13.01,2013-05-04 00:36:00,
2013-05-03 20:41:00,75.2,65.2,29.65,North,0,0.0,9.0,71,0.04,,---,0.12,VWS V13.01,2013-05-04 00:41:00,
2013-05-03 20:46:00,74.8,65.2,29.66,NW,315,0.0,9.0,72,0.04,,---,0.12,VWS V13.01,2013-05-04 00:46:00,
2013-05-03 20:51:00,74.7,65.4,29.65,NW,315,0.0,9.0,73,0.04,,---,0.12,VWS V13.01,2013-05-04 00:51:00,
2013-05-03 20:56:00,74.7,65.4,29.66,West,270,2.0,9.0,73,0.12,,---,0.20,VWS V13.01,2013-05-04 00:56:00,
2013-05-03 21:01:00,74.3,65.9,29.67,WNW,292,0.9,5.6,75,0.16,,---,0.24,VWS V13.01,2013-05-04 01:01:00,
2013-05-03 21:06:00,73.9,65.5,29.67,WNW,292,0.0,5.6,75,0.16,,---,0.24,VWS V13.01,2013-05-04 01:06:00,
2013-05-03 21:11:00,73.9,65.5,29.67,WNW,292,0.0,5.6,75,0.16,,---,0.24,VWS V13.01,2013-05-04 01:11:00,
2013-05-03 21:16:00,74.1,65.7,29.66,WNW,292,0.0,5.6,75,0.16,,---,0.24,VWS V13.01,2013-05-04 01:16:00,
2013-05-03 21:21:00,73.8,65.3,29.66,WNW,292,0.0,5.6,75,0.18,,---,0.26,VWS V13.01,2013-05-04 01:21:00,
2013-05-03 21:26:00,73.8,65.3,29.67,WNW,292,0.0,5.6,75,0.18,,---,0.26,VWS V13.01,2013-05-04 01:26:00,
2013-05-03 21:31:00,73.8,65.3,29.66,WNW,292,0.0,5.6,75,0.18,,---,0.31,VWS V13.01,2013-05-04 01:31:00,
2013-05-03 21:36:00,73.8,65.7,29.66,WNW,292,0.0,5.6,76,0.18,,---,0.31,VWS V13.01,2013-05-04 01:36:00,
2013-05-03 21:41:00,73.6,65.6,29.66,WNW,292,0.0,5.6,76,0.18,,---,0.31,VWS V13.01,2013-05-04 01:41:00,
2013-05-03 21:46:00,73.6,65.6,29.66,WNW,292,0.0,5.6,76,0.18,,---,0.31,VWS V13.01,2013-05-04 01:46:00,
2013-05-03 21:51:00,73.6,65.6,29.66,WNW,292,0.0,5.6,76,0.18,,---,0.31,VWS V13.01,2013-05-04 01:51:00,
2013-05-03 21:56:00,73.6,65.6,29.66,WNW,292,0.0,5.6,76,0.10,,---,0.31,VWS V13.01,2013-05-04 01:56:00,
2013-05-03 22:01:00,73.6,65.6,29.65,WNW,292,0.0,0.0,76,0.06,,---,0.31,VWS V13.01,2013-05-04 02:01:00,
2013-05-03 22:06:00,73.6,65.9,29.66,WNW,292,0.0,0.0,77,0.08,,---,0.33,VWS V13.01,2013-05-04 02:06:00,
2013-05-03 22:11:00,73.6,65.9,29.66,WNW,292,0.0,0.0,77,0.08,,---,0.33,VWS V13.01,2013-05-04 02:11:00,
2013-05-03 22:16:00,73.6,65.9,29.66,WNW,292,0.0,0.0,77,0.08,,---,0.33,VWS V13.01,2013-05-04 02:16:00,
2013-05-03 22:21:00,73.8,66.1,29.66,WNW,292,0.0,0.0,77,0.06,,---,0.33,VWS V13.01,2013-05-04 02:21:00,
2013-05-03 22:26:00,73.8,66.5,29.66,WNW,292,0.0,0.0,78,0.06,,---,0.33,VWS V13.01,2013-05-04 02:26:00,
2013-05-03 22:31:00,73.6,66.3,29.66,WNW,292,0.0,0.0,78,0.02,,---,0.33,VWS V13.01,2013-05-04 02:31:00,
2013-05-03 22:36:00,73.6,66.3,29.66,WNW,292,0.0,0.0,78,0.02,,---,0.33,VWS V13.01,2013-05-04 02:36:00,
2013-05-03 22:41:00,73.2,66.0,29.65,WNW,292,0.0,0.0,78,0.02,,---,0.33,VWS V13.01,2013-05-04 02:41:00,
2013-05-03 22:46:00,73.2,66.0,29.66,WNW,292,0.0,0.0,78,0.02,,---,0.33,VWS V13.01,2013-05-04 02:46:00,
2013-05-03 22:51:00,73.0,65.8,29.65,WNW,292,0.0,0.0,78,0.02,,---,0.33,VWS V13.01,2013-05-04 02:51:00,
2013-05-03 22:56:00,73.0,65.8,29.65,WNW,292,0.0,0.0,78,0.02,,---,0.33,VWS V13.01,2013-05-04 02:56:00,
2013-05-03 23:01:00,72.9,65.6,29.65,WNW,292,0.0,0.0,78,0.00,,---,0.33,VWS V13.01,2013-05-04 03:01:00,
2013-05-03 23:06:00,72.9,65.6,29.65,WNW,292,0.0,0.0,78,0.00,,---,0.33,VWS V13.01,2013-05-04 03:06:00,
2013-05-03 23:11:00,72.9,65.6,29.65,WNW,292,0.0,0.0,78,0.00,,---,0.33,VWS V13.01,2013-05-04 03:11:00,
2013-05-03 23:16:00,72.7,65.4,29.65,WNW,292,0.0,0.0,78,0.00,,---,0.33,VWS V13.01,2013-05-04 03:16:00,
2013-05-03 23:21:00,72.7,65.4,29.65,WNW,292,0.0,0.0,78,0.00,,---,0.33,VWS V13.01,2013-05-04 03:21:00,
2013-05-03 23:26:00,72.5,65.3,29.65,WNW,292,0.0,0.0,78,0.00,,---,0.33,VWS V13.01,2013-05-04 03:26:00,
2013-05-03 23:31:00,72.5,65.3,29.64,WNW,292,0.0,0.0,78,0.00,,---,0.33,VWS V13.01,2013-05-04 03:31:00,
2013-05-03 23:36:00,72.5,65.3,29.65,WNW,292,0.0,0.0,78,0.00,,---,0.33,VWS V13.01,2013-05-04 03:36:00,
2013-05-03 23:41:00,72.3,65.8,29.65,WNW,292,0.0,0.0,80,0.00,,---,0.33,VWS V13.01,2013-05-04 03:41:00,
2013-05-03 23:46:00,72.3,65.8,29.64,WNW,292,0.0,0.0,80,0.00,,---,0.33,VWS V13.01,2013-05-04 03:46:00,
2013-05-03 23:51:00,72.0,65.5,29.65,WNW,292,0.0,0.0,80,0.00,,---,0.33,VWS V13.01,2013-05-04 03:51:00,
2013-05-03 23:56:00,72.1,65.6,29.65,WNW,292,0.0,0.0,80,0.00,,---,0.33,VWS V13.01,2013-05-04 03:56:00,